createdAt,value
2024-03-16T00:00:13.804Z,68.44
2024-03-16T00:00:45.812Z,68.25
2024-03-16T00:01:18.158Z,68.20
2024-03-16T00:01:50.177Z,68.24
2024-03-16T00:02:22.230Z,68.04
2024-03-16T00:02:54.388Z,67.82
2024-03-16T00:03:26.274Z,67.65
2024-03-16T00:03:58.244Z,67.88
2024-03-16T00:04:30.379Z,67.84
2024-03-16T00:05:02.365Z,67.78
2024-03-16T00:05:34.278Z,67.93
2024-03-16T00:06:06.236Z,67.35
2024-03-16T00:06:38.558Z,67.21
2024-03-16T00:07:11.301Z,67.34
2024-03-16T00:07:43.308Z,67.50
2024-03-16T00:08:15.225Z,67.93
2024-03-16T00:08:47.156Z,67.83
2024-03-16T00:09:19.507Z,67.85
2024-03-16T00:09:51.557Z,67.95
2024-03-16T00:10:23.554Z,68.07
2024-03-16T00:10:55.772Z,68.04
2024-03-16T00:11:28.559Z,68.12
2024-03-16T00:12:00.592Z,68.14
2024-03-16T00:12:33.059Z,68.06
2024-03-16T00:13:08.036Z,68.04
2024-03-16T00:13:40.863Z,68.16
2024-03-16T00:14:12.739Z,68.51
2024-03-16T00:14:49.486Z,68.61
2024-03-16T00:15:21.537Z,68.01
2024-03-16T00:15:53.543Z,67.63
2024-03-16T00:16:25.586Z,67.69
2024-03-16T00:16:57.524Z,67.65
2024-03-16T00:17:29.426Z,67.75
2024-03-16T00:18:01.330Z,67.84
2024-03-16T00:18:35.195Z,67.89
2024-03-16T00:19:07.290Z,67.63
2024-03-16T00:19:39.273Z,67.54
2024-03-16T00:20:15.045Z,67.62
2024-03-16T00:20:46.944Z,67.83
2024-03-16T00:21:18.814Z,67.96
2024-03-16T00:21:51.223Z,67.96
2024-03-16T00:22:23.132Z,67.97
2024-03-16T00:22:55.018Z,68.02
2024-03-16T00:23:26.892Z,68.04
2024-03-16T00:23:59.230Z,68.04
2024-03-16T00:24:31.472Z,68.27
2024-03-16T00:25:03.646Z,68.29
2024-03-16T00:25:35.715Z,68.25
2024-03-16T00:26:08.820Z,68.32
2024-03-16T00:26:41.708Z,68.37
2024-03-16T00:27:14.678Z,68.38
2024-03-16T00:27:46.654Z,68.47
2024-03-16T00:28:18.548Z,68.59
2024-03-16T00:28:52.158Z,68.78
2024-03-16T00:29:24.439Z,68.97
2024-03-16T00:29:56.605Z,69.01
2024-03-16T00:30:28.689Z,69.05
2024-03-16T00:31:01.197Z,69.13
2024-03-16T00:31:37.367Z,69.18
2024-03-16T00:32:10.087Z,69.34
2024-03-16T00:32:42.168Z,69.51
2024-03-16T00:33:14.529Z,69.63
2024-03-16T00:33:46.564Z,69.70
2024-03-16T00:34:18.560Z,69.86
2024-03-16T00:34:50.499Z,69.97
2024-03-16T00:35:22.404Z,69.99
2024-03-16T00:35:54.324Z,69.92
2024-03-16T00:36:26.241Z,69.90
2024-03-16T00:36:58.787Z,70.00
2024-03-16T00:37:30.741Z,70.15
2024-03-16T00:38:02.662Z,70.13
2024-03-16T00:38:34.583Z,70.17
2024-03-16T00:39:16.829Z,70.19
2024-03-16T00:39:49.151Z,70.26
2024-03-16T00:40:21.859Z,70.28
2024-03-16T00:40:57.421Z,70.27
2024-03-16T00:41:29.294Z,70.29
2024-03-16T00:42:02.065Z,70.37
2024-03-16T00:42:34.029Z,70.41
2024-03-16T00:43:05.954Z,70.35
2024-03-16T00:43:38.139Z,70.30
2024-03-16T00:44:10.133Z,70.27
2024-03-16T00:44:42.041Z,70.28
2024-03-16T00:45:14.295Z,70.25
2024-03-16T00:45:46.285Z,70.23
2024-03-16T00:46:18.532Z,70.23
2024-03-16T00:46:50.404Z,70.35
2024-03-16T00:47:22.289Z,70.40
2024-03-16T00:47:55.109Z,70.41
2024-03-16T00:48:27.134Z,70.41
2024-03-16T00:48:59.091Z,70.44
2024-03-16T00:49:30.982Z,70.39
2024-03-16T00:50:03.240Z,70.38
2024-03-16T00:50:35.148Z,70.50
2024-03-16T00:51:07.068Z,70.64
2024-03-16T00:51:38.957Z,70.65
2024-03-16T00:52:11.054Z,70.64
2024-03-16T00:52:42.984Z,70.34
2024-03-16T00:53:14.973Z,70.30
2024-03-16T00:53:47.478Z,70.20
2024-03-16T00:54:19.426Z,70.20
2024-03-16T00:54:51.410Z,69.96
2024-03-16T00:55:23.373Z,69.84
2024-03-16T00:55:55.563Z,69.85
2024-03-16T00:56:28.179Z,69.85
2024-03-16T00:57:00.079Z,69.77
2024-03-16T00:57:32.103Z,69.68
2024-03-16T00:58:04.643Z,69.56
2024-03-16T00:58:36.769Z,69.51
2024-03-16T00:59:10.058Z,69.50
2024-03-16T00:59:42.020Z,69.54
2024-03-16T01:00:15.864Z,69.53
2024-03-16T01:00:47.874Z,69.97
2024-03-16T01:01:20.034Z,70.11
2024-03-16T01:01:53.519Z,70.03
2024-03-16T01:02:25.649Z,70.01
2024-03-16T01:02:57.572Z,70.14
2024-03-16T01:03:29.536Z,70.13
2024-03-16T01:04:02.256Z,70.10
2024-03-16T01:04:34.306Z,70.23
2024-03-16T01:05:06.355Z,70.41
2024-03-16T01:05:38.276Z,70.52
2024-03-16T01:06:10.655Z,70.67
2024-03-16T01:06:42.636Z,70.66
2024-03-16T01:07:14.574Z,70.64
2024-03-16T01:07:46.539Z,70.54
2024-03-16T01:08:18.405Z,70.50
2024-03-16T01:08:50.313Z,70.51
2024-03-16T01:09:23.508Z,70.49
2024-03-16T01:09:56.832Z,70.35
2024-03-16T01:10:28.880Z,70.32
2024-03-16T01:11:00.845Z,70.39
2024-03-16T01:11:33.550Z,70.33
2024-03-16T01:12:05.540Z,70.33
2024-03-16T01:12:37.471Z,70.37
2024-03-16T01:13:09.420Z,70.38
2024-03-16T01:13:41.412Z,70.49
2024-03-16T01:14:13.326Z,70.77
2024-03-16T01:14:45.214Z,71.18
2024-03-16T01:15:18.006Z,71.43
2024-03-16T01:15:50.058Z,71.31
2024-03-16T01:16:22.010Z,71.17
2024-03-16T01:16:54.108Z,71.51
2024-03-16T01:17:26.042Z,71.53
2024-03-16T01:17:57.974Z,71.33
2024-03-16T01:18:30.225Z,71.32
2024-03-16T01:19:02.293Z,71.28
2024-03-16T01:19:36.387Z,71.16
2024-03-16T01:20:10.492Z,71.19
2024-03-16T01:20:45.742Z,71.26
2024-03-16T01:21:17.690Z,71.07
2024-03-16T01:21:49.620Z,70.96
2024-03-16T01:22:23.173Z,70.91
2024-03-16T01:22:55.084Z,70.81
2024-03-16T01:23:26.956Z,70.57
2024-03-16T01:23:58.816Z,70.47
2024-03-16T01:24:30.716Z,70.40
2024-03-16T01:25:03.135Z,70.36
2024-03-16T01:25:35.135Z,70.33
2024-03-16T01:26:08.359Z,70.39
2024-03-16T01:26:40.332Z,70.42
2024-03-16T01:27:12.449Z,70.40
2024-03-16T01:27:44.365Z,70.23
2024-03-16T01:28:16.330Z,70.17
2024-03-16T01:28:48.430Z,70.17
2024-03-16T01:29:20.308Z,70.08
2024-03-16T01:29:52.366Z,70.07
2024-03-16T01:30:25.628Z,70.18
2024-03-16T01:30:58.393Z,70.09
2024-03-16T01:31:30.801Z,69.98
2024-03-16T01:32:05.562Z,69.92
2024-03-16T01:32:37.484Z,69.96
2024-03-16T01:33:09.411Z,69.93
2024-03-16T01:33:41.325Z,69.85
2024-03-16T01:34:13.348Z,69.84
2024-03-16T01:34:45.256Z,69.98
2024-03-16T01:35:17.205Z,69.97
2024-03-16T01:35:49.664Z,69.93
2024-03-16T01:36:21.581Z,69.95
2024-03-16T01:36:54.198Z,69.90
2024-03-16T01:37:26.112Z,69.75
2024-03-16T01:37:58.245Z,70.28
2024-03-16T01:38:30.250Z,70.56
2024-03-16T01:39:02.146Z,70.51
2024-03-16T01:39:34.330Z,70.34
2024-03-16T01:40:08.074Z,70.20
2024-03-16T01:40:40.065Z,70.26
2024-03-16T01:41:12.069Z,70.40
2024-03-16T01:41:43.992Z,70.45
2024-03-16T01:42:15.928Z,70.44
2024-03-16T01:42:47.887Z,70.39
2024-03-16T01:43:19.928Z,70.48
2024-03-16T01:43:51.885Z,70.86
2024-03-16T01:44:23.841Z,71.11
2024-03-16T01:45:14.735Z,71.02
2024-03-16T01:45:46.952Z,71.01
2024-03-16T01:46:18.985Z,70.77
2024-03-16T01:46:50.868Z,70.78
2024-03-16T01:47:22.875Z,70.87
2024-03-16T01:47:56.253Z,70.87
2024-03-16T01:48:28.317Z,70.27
2024-03-16T01:49:00.660Z,70.04
2024-03-16T01:49:32.552Z,70.18
2024-03-16T01:50:04.566Z,70.47
2024-03-16T01:50:40.097Z,70.73
2024-03-16T01:51:13.455Z,70.57
2024-03-16T01:51:45.445Z,70.40
2024-03-16T01:52:17.367Z,69.96
2024-03-16T01:52:49.442Z,69.73
2024-03-16T01:53:21.371Z,69.37
2024-03-16T01:53:53.290Z,68.94
2024-03-16T01:54:25.190Z,68.84
2024-03-16T01:54:57.220Z,68.87
2024-03-16T01:55:29.174Z,68.72
2024-03-16T01:56:01.070Z,68.63
2024-03-16T01:56:33.542Z,68.37
2024-03-16T01:57:05.505Z,68.41
2024-03-16T01:57:38.853Z,68.94
2024-03-16T01:58:10.809Z,70.08
2024-03-16T01:58:46.580Z,70.30
2024-03-16T01:59:18.834Z,70.05
2024-03-16T01:59:50.769Z,69.03
2024-03-16T02:00:22.640Z,69.59
2024-03-16T02:00:54.837Z,70.62
2024-03-16T02:01:27.324Z,70.71
2024-03-16T02:02:01.969Z,70.85
2024-03-16T02:02:35.380Z,70.97
2024-03-16T02:03:07.304Z,71.02
2024-03-16T02:03:40.872Z,71.03
2024-03-16T02:04:12.851Z,71.13
2024-03-16T02:04:44.753Z,71.24
2024-03-16T02:05:16.672Z,71.29
2024-03-16T02:05:48.582Z,71.32
2024-03-16T02:06:20.491Z,71.31
2024-03-16T02:06:52.422Z,71.33
2024-03-16T02:07:24.339Z,71.42
2024-03-16T02:07:56.257Z,71.35
2024-03-16T02:08:28.180Z,71.18
2024-03-16T02:09:01.532Z,71.36
2024-03-16T02:09:33.465Z,71.45
2024-03-16T02:10:06.688Z,71.43
2024-03-16T02:10:38.801Z,71.47
2024-03-16T02:11:10.685Z,71.46
2024-03-16T02:11:42.625Z,71.31
2024-03-16T02:12:14.565Z,71.10
2024-03-16T02:12:46.517Z,70.93
2024-03-16T02:13:18.508Z,70.98
2024-03-16T02:13:50.535Z,70.98
2024-03-16T02:14:22.474Z,71.11
2024-03-16T02:14:54.362Z,71.39
2024-03-16T02:15:26.594Z,71.59
2024-03-16T02:15:58.632Z,71.23
2024-03-16T02:16:30.607Z,70.89
2024-03-16T02:17:02.502Z,70.24
2024-03-16T02:17:34.469Z,69.54
2024-03-16T02:18:06.428Z,69.16
2024-03-16T02:18:38.411Z,69.32
2024-03-16T02:19:10.327Z,69.78
2024-03-16T02:19:42.375Z,70.03
2024-03-16T02:20:17.393Z,69.93
2024-03-16T02:20:49.472Z,70.00
2024-03-16T02:21:21.421Z,70.34
2024-03-16T02:21:53.347Z,70.60
2024-03-16T02:22:25.260Z,70.70
2024-03-16T02:22:57.188Z,70.98
2024-03-16T02:23:32.060Z,71.06
2024-03-16T02:24:03.991Z,71.11
2024-03-16T02:24:36.461Z,71.09
2024-03-16T02:25:09.701Z,70.99
2024-03-16T02:25:41.928Z,71.09
2024-03-16T02:26:13.836Z,71.03
2024-03-16T02:26:47.033Z,71.14
2024-03-16T02:27:21.258Z,71.49
2024-03-16T02:27:53.389Z,71.67
2024-03-16T02:28:25.307Z,71.84
2024-03-16T02:28:57.328Z,71.81
2024-03-16T02:29:29.658Z,71.44
2024-03-16T02:30:01.585Z,70.72
2024-03-16T02:30:33.574Z,71.07
2024-03-16T02:31:06.280Z,71.38
2024-03-16T02:31:38.295Z,71.36
2024-03-16T02:32:10.680Z,71.36
2024-03-16T02:32:42.615Z,71.58
2024-03-16T02:33:15.350Z,71.90
2024-03-16T02:33:47.296Z,72.08
2024-03-16T02:34:19.280Z,72.09
2024-03-16T02:34:52.024Z,72.19
2024-03-16T02:35:24.231Z,72.18
2024-03-16T02:35:56.850Z,71.63
2024-03-16T02:36:28.889Z,71.71
2024-03-16T02:37:01.194Z,71.95
2024-03-16T02:37:33.925Z,71.90
2024-03-16T02:38:05.812Z,71.67
2024-03-16T02:38:37.753Z,71.32
2024-03-16T02:39:12.293Z,70.98
2024-03-16T02:39:44.359Z,70.90
2024-03-16T02:40:16.895Z,70.94
2024-03-16T02:40:48.833Z,70.99
2024-03-16T02:41:20.735Z,70.68
2024-03-16T02:41:57.198Z,70.58
2024-03-16T02:42:29.176Z,70.74
2024-03-16T02:43:01.187Z,70.97
2024-03-16T02:43:33.113Z,70.44
2024-03-16T02:44:06.244Z,69.49
2024-03-16T02:44:38.175Z,69.27
2024-03-16T02:45:10.885Z,69.57
2024-03-16T02:45:42.868Z,70.26
2024-03-16T02:46:14.831Z,70.40
2024-03-16T02:46:46.991Z,70.38
2024-03-16T02:47:19.061Z,70.63
2024-03-16T02:47:50.996Z,70.83
2024-03-16T02:48:22.877Z,71.32
2024-03-16T02:48:54.799Z,71.74
2024-03-16T02:49:29.420Z,71.98
2024-03-16T02:50:05.030Z,71.66
2024-03-16T02:50:37.137Z,71.23
2024-03-16T02:51:09.051Z,71.09
2024-03-16T02:51:41.000Z,71.10
2024-03-16T02:52:14.208Z,71.28
2024-03-16T02:52:46.127Z,71.15
2024-03-16T02:53:18.034Z,70.95
2024-03-16T02:53:51.288Z,70.91
2024-03-16T02:54:23.251Z,70.68
2024-03-16T02:54:55.203Z,70.29
2024-03-16T02:55:27.113Z,70.19
2024-03-16T02:55:59.048Z,70.25
2024-03-16T02:56:31.469Z,70.30
2024-03-16T02:57:03.381Z,70.24
2024-03-16T02:57:35.422Z,70.13
2024-03-16T02:58:07.483Z,70.11
2024-03-16T02:58:40.257Z,70.16
2024-03-16T02:59:12.604Z,70.02
2024-03-16T02:59:44.520Z,69.96
2024-03-16T03:00:18.100Z,69.99
2024-03-16T03:00:50.718Z,70.04
2024-03-16T03:01:22.859Z,70.09
2024-03-16T03:01:56.953Z,70.07
2024-03-16T03:02:29.331Z,70.01
2024-03-16T03:03:01.218Z,69.94
2024-03-16T03:03:33.217Z,69.87
2024-03-16T03:04:06.607Z,69.77
2024-03-16T03:04:38.568Z,69.74
2024-03-16T03:05:13.168Z,69.84
2024-03-16T03:05:45.122Z,69.89
2024-03-16T03:06:16.995Z,69.94
2024-03-16T03:06:48.952Z,69.92
2024-03-16T03:07:20.899Z,69.86
2024-03-16T03:07:53.967Z,69.82
2024-03-16T03:08:26.114Z,69.63
2024-03-16T03:08:58.049Z,69.48
2024-03-16T03:09:30.615Z,69.42
2024-03-16T03:10:02.694Z,69.46
2024-03-16T03:10:34.668Z,69.50
2024-03-16T03:11:06.709Z,69.58
2024-03-16T03:11:39.382Z,69.64
2024-03-16T03:12:11.491Z,69.60
2024-03-16T03:12:43.514Z,69.52
2024-03-16T03:13:15.768Z,69.51
2024-03-16T03:13:50.594Z,69.50
2024-03-16T03:14:22.670Z,69.39
2024-03-16T03:14:54.561Z,69.38
2024-03-16T03:15:26.455Z,69.44
2024-03-16T03:15:58.417Z,69.34
2024-03-16T03:16:30.324Z,69.21
2024-03-16T03:17:02.568Z,69.18
2024-03-16T03:17:34.578Z,69.03
2024-03-16T03:18:07.162Z,68.91
2024-03-16T03:18:39.111Z,68.88
2024-03-16T03:19:11.281Z,68.79
2024-03-16T03:19:44.203Z,68.75
2024-03-16T03:20:16.178Z,68.74
2024-03-16T03:20:48.124Z,68.86
2024-03-16T03:21:20.076Z,68.90
2024-03-16T03:21:52.060Z,68.89
2024-03-16T03:22:24.037Z,69.10
2024-03-16T03:22:55.929Z,69.40
2024-03-16T03:23:29.361Z,69.21
2024-03-16T03:24:01.295Z,68.83
2024-03-16T03:24:33.219Z,68.67
2024-03-16T03:25:05.928Z,68.42
2024-03-16T03:25:39.046Z,68.28
2024-03-16T03:26:11.251Z,68.09
2024-03-16T03:26:43.179Z,67.97
2024-03-16T03:27:15.158Z,67.86
2024-03-16T03:27:47.173Z,67.67
2024-03-16T03:28:19.153Z,67.68
2024-03-16T03:28:51.075Z,68.02
2024-03-16T03:29:22.984Z,67.66
2024-03-16T03:29:54.862Z,68.20
2024-03-16T03:30:26.823Z,68.28
2024-03-16T03:30:58.763Z,68.04
2024-03-16T03:31:30.670Z,67.68
2024-03-16T03:32:02.584Z,67.27
2024-03-16T03:32:34.481Z,67.78
2024-03-16T03:33:06.460Z,67.80
2024-03-16T03:33:39.492Z,67.97
2024-03-16T03:34:11.521Z,68.06
2024-03-16T03:34:43.672Z,67.99
2024-03-16T03:35:15.779Z,67.97
2024-03-16T03:35:47.990Z,68.12
2024-03-16T03:36:20.281Z,67.99
2024-03-16T03:36:52.219Z,67.77
2024-03-16T03:37:24.120Z,67.71
2024-03-16T03:37:56.010Z,67.75
2024-03-16T03:38:27.931Z,67.84
2024-03-16T03:38:59.857Z,67.93
2024-03-16T03:40:04.143Z,68.02
2024-03-16T03:40:36.353Z,68.12
2024-03-16T03:41:09.279Z,68.11
2024-03-16T03:41:41.349Z,68.35
2024-03-16T03:42:13.293Z,69.17
2024-03-16T03:42:49.414Z,69.65
2024-03-16T03:43:23.225Z,69.57
2024-03-16T03:44:10.257Z,69.11
2024-03-16T03:44:51.331Z,68.86
2024-03-16T03:45:28.818Z,70.05
2024-03-16T03:46:00.887Z,69.99
2024-03-16T03:46:51.241Z,69.45
2024-03-16T03:47:31.511Z,69.64
2024-03-16T03:48:26.086Z,70.68
2024-03-16T03:49:13.490Z,71.57
2024-03-16T03:49:52.075Z,71.25
2024-03-16T03:50:30.501Z,72.07
2024-03-16T03:51:02.792Z,70.32
2024-03-16T03:51:34.718Z,71.06
2024-03-16T03:52:06.886Z,73.20
2024-03-16T03:52:38.962Z,73.47
2024-03-16T03:53:10.931Z,74.55
2024-03-16T03:53:42.825Z,76.79
2024-03-16T03:54:14.718Z,81.96
2024-03-16T03:54:46.635Z,90.86
2024-03-16T03:55:19.450Z,95.88
2024-03-16T03:55:51.399Z,96.29
2024-03-16T03:56:23.321Z,98.69
2024-03-16T03:56:55.277Z,99.54
2024-03-16T03:57:27.289Z,97.32
2024-03-16T03:57:59.298Z,95.14
2024-03-16T03:58:31.226Z,95.34
2024-03-16T03:59:03.401Z,94.74
2024-03-16T03:59:35.308Z,94.96
2024-03-16T04:00:09.734Z,95.92
2024-03-16T04:00:44.538Z,97.29
2024-03-16T04:01:16.642Z,96.95
2024-03-16T04:01:48.698Z,95.42
2024-03-16T04:02:20.653Z,95.29
2024-03-16T04:02:52.622Z,95.66
2024-03-16T04:03:24.488Z,98.72
2024-03-16T04:03:57.336Z,99.94
2024-03-16T04:04:29.262Z,100.00
2024-03-16T04:05:01.164Z,100.00
2024-03-16T04:05:33.122Z,99.98
2024-03-16T04:06:05.424Z,100.00
2024-03-16T04:06:37.695Z,100.00
2024-03-16T04:07:10.207Z,100.00
2024-03-16T04:07:43.113Z,100.00
2024-03-16T04:08:15.010Z,100.00
2024-03-16T04:08:47.098Z,100.00
2024-03-16T04:09:19.033Z,100.00
2024-03-16T04:09:51.136Z,99.99
2024-03-16T04:10:23.233Z,100.00
2024-03-16T04:10:55.221Z,100.00
2024-03-16T04:11:27.205Z,100.00
2024-03-16T04:11:59.153Z,99.93
2024-03-16T04:12:31.273Z,99.89
2024-03-16T04:13:03.422Z,100.00
2024-03-16T04:13:35.344Z,100.00
2024-03-16T04:14:08.231Z,100.00
2024-03-16T04:14:40.150Z,100.00
2024-03-16T04:15:12.077Z,100.00
2024-03-16T04:15:44.075Z,100.00
2024-03-16T04:16:16.201Z,100.00
2024-03-16T04:16:49.450Z,100.00
2024-03-16T04:17:21.382Z,100.00
2024-03-16T04:17:53.503Z,100.00
2024-03-16T04:18:25.445Z,100.00
2024-03-16T04:18:57.351Z,100.00
2024-03-16T04:19:29.241Z,100.00
2024-03-16T04:20:01.247Z,100.00
2024-03-16T04:20:33.126Z,100.00
2024-03-16T04:21:08.163Z,100.00
2024-03-16T04:21:40.253Z,100.00
2024-03-16T04:22:14.949Z,100.00
2024-03-16T04:22:47.980Z,100.00
2024-03-16T04:23:19.849Z,100.00
2024-03-16T04:23:51.733Z,100.00
2024-03-16T04:24:23.653Z,100.00
2024-03-16T04:24:55.576Z,100.00
2024-03-16T04:25:27.557Z,100.00
2024-03-16T04:25:59.424Z,100.00
2024-03-16T04:26:31.372Z,100.00
2024-03-16T04:27:03.299Z,100.00
2024-03-16T04:27:35.203Z,100.00
2024-03-16T04:28:07.202Z,100.00
2024-03-16T04:28:39.107Z,100.00
2024-03-16T04:29:11.030Z,100.00
2024-03-16T04:29:42.913Z,100.00
2024-03-16T04:30:14.884Z,100.00
2024-03-16T04:30:46.846Z,100.00
2024-03-16T04:31:18.853Z,100.00
2024-03-16T04:31:50.783Z,100.00
2024-03-16T04:32:27.972Z,100.00
2024-03-16T04:32:59.890Z,100.00
2024-03-16T04:33:31.989Z,100.00
2024-03-16T04:34:04.057Z,100.00
2024-03-16T04:34:37.587Z,100.00
2024-03-16T04:35:09.830Z,100.00
2024-03-16T04:35:41.745Z,100.00
2024-03-16T04:36:14.026Z,99.78
2024-03-16T04:36:46.032Z,99.93
2024-03-16T04:37:18.516Z,100.00
2024-03-16T04:37:50.434Z,100.00
2024-03-16T04:38:22.653Z,100.00
2024-03-16T04:38:54.561Z,100.00
2024-03-16T04:39:26.853Z,100.00
2024-03-16T04:39:59.656Z,100.00
2024-03-16T04:40:32.057Z,100.00
2024-03-16T04:41:03.979Z,100.00
2024-03-16T04:41:35.905Z,100.00
2024-03-16T04:42:07.782Z,100.00
2024-03-16T04:42:39.720Z,100.00
2024-03-16T04:43:11.805Z,100.00
2024-03-16T04:43:46.218Z,100.00
2024-03-16T04:44:18.079Z,99.91
2024-03-16T04:44:49.965Z,99.29
2024-03-16T04:45:21.883Z,98.84
2024-03-16T04:45:53.825Z,99.84
2024-03-16T04:46:26.087Z,100.00
2024-03-16T04:46:58.062Z,100.00
2024-03-16T04:47:30.007Z,100.00
2024-03-16T04:48:01.967Z,100.00
2024-03-16T04:48:33.944Z,100.00
2024-03-16T04:49:06.078Z,100.00
2024-03-16T04:49:38.086Z,100.00
2024-03-16T04:50:12.683Z,100.00
2024-03-16T04:50:45.537Z,100.00
2024-03-16T04:51:18.254Z,100.00
2024-03-16T04:51:50.393Z,100.00
2024-03-16T04:52:22.353Z,100.00
2024-03-16T04:52:54.234Z,100.00
2024-03-16T04:53:26.136Z,100.00
2024-03-16T04:53:58.064Z,100.00
2024-03-16T04:54:29.997Z,100.00
2024-03-16T04:55:01.973Z,100.00
2024-03-16T04:55:34.795Z,100.00
2024-03-16T04:56:06.699Z,100.00
2024-03-16T04:56:38.639Z,100.00
2024-03-16T04:57:10.557Z,100.00
2024-03-16T04:57:42.503Z,100.00
2024-03-16T04:58:14.493Z,100.00
2024-03-16T04:58:46.498Z,100.00
2024-03-16T04:59:18.407Z,100.00
2024-03-16T04:59:50.361Z,100.00
2024-03-16T05:00:22.262Z,100.00
2024-03-16T05:00:54.383Z,100.00
2024-03-16T05:01:26.750Z,100.00
2024-03-16T05:01:58.777Z,100.00
2024-03-16T05:02:31.900Z,100.00
2024-03-16T05:03:03.933Z,100.00
2024-03-16T05:03:35.948Z,100.00
2024-03-16T05:04:09.067Z,100.00
2024-03-16T05:04:41.037Z,100.00
2024-03-16T05:05:12.954Z,100.00
2024-03-16T05:05:45.025Z,100.00
2024-03-16T05:06:16.900Z,100.00
2024-03-16T05:06:48.820Z,100.00
2024-03-16T05:07:20.896Z,100.00
2024-03-16T05:07:52.917Z,100.00
2024-03-16T05:08:24.832Z,100.00
2024-03-16T05:08:56.767Z,100.00
2024-03-16T05:09:28.714Z,100.00
2024-03-16T05:10:00.715Z,100.00
2024-03-16T05:10:32.652Z,100.00
2024-03-16T05:11:04.636Z,100.00
2024-03-16T05:11:39.739Z,100.00
2024-03-16T05:12:11.609Z,100.00
2024-03-16T05:12:43.896Z,99.83
2024-03-16T05:13:15.890Z,99.70
2024-03-16T05:13:47.777Z,100.00
2024-03-16T05:14:19.682Z,100.00
2024-03-16T05:14:51.693Z,100.00
2024-03-16T05:15:23.624Z,100.00
2024-03-16T05:15:55.613Z,100.00
2024-03-16T05:16:27.584Z,99.97
2024-03-16T05:16:59.514Z,99.35
2024-03-16T05:17:32.808Z,99.06
2024-03-16T05:18:05.165Z,99.85
2024-03-16T05:18:37.177Z,99.52
2024-03-16T05:19:09.191Z,99.74
2024-03-16T05:19:41.194Z,100.00
2024-03-16T05:20:13.150Z,99.51
2024-03-16T05:20:45.714Z,99.73
2024-03-16T05:21:17.597Z,99.41
2024-03-16T05:21:49.530Z,99.95
2024-03-16T05:22:21.567Z,99.97
2024-03-16T05:22:53.830Z,99.59
2024-03-16T05:23:25.773Z,99.16
2024-03-16T05:23:57.780Z,98.96
2024-03-16T05:24:29.721Z,99.44
2024-03-16T05:25:01.668Z,98.13
2024-03-16T05:25:33.687Z,98.08
2024-03-16T05:26:05.561Z,98.36
2024-03-16T05:26:37.964Z,98.79
2024-03-16T05:27:11.408Z,98.43
2024-03-16T05:27:44.184Z,98.60
2024-03-16T05:28:17.924Z,99.57
2024-03-16T05:28:50.378Z,98.55
2024-03-16T05:29:22.326Z,98.75
2024-03-16T05:29:54.232Z,99.32
2024-03-16T05:30:26.115Z,99.79
2024-03-16T05:30:58.076Z,99.51
2024-03-16T05:31:30.120Z,100.00
2024-03-16T05:32:02.753Z,99.96
2024-03-16T05:32:34.688Z,99.76
2024-03-16T05:33:06.659Z,99.26
2024-03-16T05:33:38.617Z,99.54
2024-03-16T05:34:10.616Z,99.65
2024-03-16T05:34:42.535Z,99.90
2024-03-16T05:35:14.443Z,100.00
2024-03-16T05:35:46.333Z,99.83
2024-03-16T05:36:18.359Z,99.87
2024-03-16T05:36:50.299Z,100.00
2024-03-16T05:37:22.334Z,99.57
2024-03-16T05:37:54.253Z,99.32
2024-03-16T05:38:26.167Z,99.35
2024-03-16T05:38:58.040Z,98.67
2024-03-16T05:39:30.009Z,98.87
2024-03-16T05:40:02.080Z,99.37
2024-03-16T05:40:34.145Z,98.91
2024-03-16T05:41:06.642Z,98.74
2024-03-16T05:41:38.529Z,99.37
2024-03-16T05:42:12.537Z,99.53
2024-03-16T05:42:44.760Z,99.53
2024-03-16T05:43:16.859Z,99.79
2024-03-16T05:43:48.891Z,99.92
2024-03-16T05:44:20.847Z,99.35
2024-03-16T05:44:52.774Z,99.36
2024-03-16T05:45:24.671Z,99.89
2024-03-16T05:45:56.931Z,99.57
2024-03-16T05:46:28.853Z,99.75
2024-03-16T05:47:00.769Z,99.91
2024-03-16T05:47:32.722Z,100.00
2024-03-16T05:48:04.890Z,99.78
2024-03-16T05:48:36.815Z,99.35
2024-03-16T05:49:08.830Z,98.51
2024-03-16T05:49:41.291Z,99.07
2024-03-16T05:50:13.158Z,100.00
2024-03-16T05:50:45.515Z,100.00
2024-03-16T05:51:18.612Z,99.96
2024-03-16T05:51:51.233Z,100.00
2024-03-16T05:52:23.179Z,98.96
2024-03-16T05:52:55.400Z,99.45
2024-03-16T05:53:27.339Z,99.44
2024-03-16T05:54:00.809Z,99.89
2024-03-16T05:54:35.540Z,100.00
2024-03-16T05:55:07.893Z,100.00
2024-03-16T05:55:40.199Z,99.76
2024-03-16T05:56:14.135Z,99.73
2024-03-16T05:56:46.062Z,99.96
2024-03-16T05:57:18.169Z,99.39
2024-03-16T05:57:50.248Z,99.05
2024-03-16T05:58:23.084Z,99.92
2024-03-16T05:58:54.980Z,99.80
2024-03-16T05:59:26.904Z,99.15
2024-03-16T05:59:58.784Z,99.18
2024-03-16T06:00:30.827Z,99.26
2024-03-16T06:01:05.524Z,99.77
2024-03-16T06:01:38.110Z,99.65
2024-03-16T06:02:10.274Z,100.00
2024-03-16T06:02:42.240Z,100.00
2024-03-16T06:03:14.153Z,99.76
2024-03-16T06:03:46.093Z,99.46
2024-03-16T06:04:21.055Z,99.79
2024-03-16T06:04:53.110Z,99.64
2024-03-16T06:05:25.029Z,98.95
2024-03-16T06:05:56.962Z,99.47
2024-03-16T06:06:28.924Z,99.12
2024-03-16T06:07:00.975Z,99.12
2024-03-16T06:07:33.000Z,98.95
2024-03-16T06:08:06.298Z,98.81
2024-03-16T06:08:38.243Z,97.81
2024-03-16T06:09:10.154Z,97.67
2024-03-16T06:09:42.101Z,98.37
2024-03-16T06:10:14.153Z,98.03
2024-03-16T06:10:46.156Z,97.98
2024-03-16T06:11:18.113Z,97.39
2024-03-16T06:11:50.039Z,97.65
2024-03-16T06:12:22.210Z,97.53
2024-03-16T06:12:54.118Z,97.86
2024-03-16T06:13:26.198Z,97.27
2024-03-16T06:13:58.114Z,97.45
2024-03-16T06:14:29.990Z,96.67
2024-03-16T06:15:01.909Z,97.08
2024-03-16T06:15:34.093Z,97.58
2024-03-16T06:16:06.724Z,96.83
2024-03-16T06:16:38.893Z,96.66
2024-03-16T06:17:10.799Z,95.60
2024-03-16T06:17:42.748Z,95.08
2024-03-16T06:18:14.968Z,94.86
2024-03-16T06:18:48.846Z,95.38
2024-03-16T06:19:20.907Z,95.27
2024-03-16T06:19:54.976Z,95.25
2024-03-16T06:20:26.894Z,95.28
2024-03-16T06:20:58.784Z,94.61
2024-03-16T06:21:30.710Z,94.45
2024-03-16T06:22:04.237Z,95.31
2024-03-16T06:22:36.299Z,94.94
2024-03-16T06:23:09.646Z,94.91
2024-03-16T06:23:41.622Z,93.69
2024-03-16T06:24:13.889Z,92.74
2024-03-16T06:24:48.413Z,91.71
2024-03-16T06:25:21.552Z,92.44
2024-03-16T06:25:54.830Z,89.76
2024-03-16T06:26:29.398Z,91.17
2024-03-16T06:27:07.248Z,92.67
2024-03-16T06:27:44.742Z,90.97
2024-03-16T06:28:22.935Z,89.11
2024-03-16T06:29:06.525Z,91.41
2024-03-16T06:29:40.182Z,92.30
2024-03-16T06:30:14.182Z,91.96
2024-03-16T06:30:57.568Z,91.75
2024-03-16T06:31:33.126Z,92.16
2024-03-16T06:32:07.977Z,91.29
2024-03-16T06:32:45.777Z,90.99
2024-03-16T06:33:28.213Z,90.33
2024-03-16T06:34:00.385Z,90.77
2024-03-16T06:34:34.613Z,91.40
2024-03-16T06:35:06.786Z,91.07
2024-03-16T06:35:38.994Z,89.53
2024-03-16T06:36:10.983Z,90.59
2024-03-16T06:36:42.949Z,90.37
2024-03-16T06:37:14.924Z,90.02
2024-03-16T06:37:46.904Z,89.56
2024-03-16T06:38:19.822Z,89.22
2024-03-16T06:38:51.703Z,89.88
2024-03-16T06:39:25.116Z,89.42
2024-03-16T06:39:57.095Z,88.32
2024-03-16T06:40:29.045Z,88.60
2024-03-16T06:41:01.025Z,89.66
2024-03-16T06:41:32.913Z,88.92
2024-03-16T06:42:05.316Z,88.30
2024-03-16T06:42:37.230Z,88.84
2024-03-16T06:43:09.300Z,88.14
2024-03-16T06:43:41.254Z,88.12
2024-03-16T06:44:13.149Z,87.74
2024-03-16T06:44:45.616Z,88.52
2024-03-16T06:45:17.618Z,88.90
2024-03-16T06:45:49.510Z,88.13
2024-03-16T06:46:22.937Z,89.11
2024-03-16T06:46:54.869Z,89.07
2024-03-16T06:47:26.847Z,88.27
2024-03-16T06:47:58.855Z,89.14
2024-03-16T06:48:30.852Z,89.01
2024-03-16T06:49:07.574Z,88.02
2024-03-16T06:49:40.093Z,87.43
2024-03-16T06:50:12.224Z,87.29
2024-03-16T06:50:47.142Z,87.26
2024-03-16T06:51:20.100Z,88.43
2024-03-16T06:51:52.077Z,87.26
2024-03-16T06:52:25.914Z,87.25
2024-03-16T06:52:57.914Z,86.77
2024-03-16T06:53:29.859Z,86.98
2024-03-16T06:54:07.902Z,86.85
2024-03-16T06:54:40.891Z,86.91
2024-03-16T06:55:14.597Z,86.48
2024-03-16T06:55:52.486Z,86.66
2024-03-16T06:56:24.508Z,83.89
2024-03-16T06:56:56.404Z,83.88
2024-03-16T06:57:28.384Z,83.58
2024-03-16T06:58:00.340Z,84.13